createdAt,value
2022-10-03T00:01:40.376Z,3.00
2022-10-03T00:04:18.014Z,2.30
2022-10-03T00:07:06.766Z,2.20
2022-10-03T00:09:34.531Z,2.60
2022-10-03T00:12:14.060Z,2.70
2022-10-03T00:14:48.869Z,2.40
2022-10-03T00:17:55.561Z,2.50
2022-10-03T00:20:49.827Z,2.70
2022-10-03T00:23:26.458Z,2.70
2022-10-03T00:26:00.614Z,3.10
2022-10-03T00:28:57.466Z,2.80
2022-10-03T00:31:40.862Z,3.00
2022-10-03T00:34:32.482Z,3.20
2022-10-03T00:37:12.528Z,3.50
2022-10-03T00:39:53.596Z,2.80
2022-10-03T00:42:40.228Z,3.10
2022-10-03T00:45:20.248Z,3.40
2022-10-03T00:48:08.109Z,2.90
2022-10-03T00:50:52.535Z,3.20
2022-10-03T00:53:42.295Z,2.90
2022-10-03T00:56:35.957Z,2.70
2022-10-03T00:59:29.454Z,3.00
2022-10-03T01:01:57.344Z,3.10
2022-10-03T01:04:51.460Z,3.10
2022-10-03T01:07:43.389Z,2.70
2022-10-03T01:10:17.184Z,2.60
2022-10-03T01:13:28.358Z,2.60
2022-10-03T01:16:12.390Z,2.70
2022-10-03T01:18:58.273Z,2.70
2022-10-03T01:21:47.744Z,3.10
2022-10-03T01:24:43.735Z,2.90
2022-10-03T01:27:24.314Z,3.30
2022-10-03T01:30:24.025Z,2.50
2022-10-03T01:33:10.690Z,2.60
2022-10-03T01:35:57.113Z,2.60
2022-10-03T01:38:34.063Z,2.80
2022-10-03T01:41:04.466Z,2.40
2022-10-03T01:43:51.604Z,2.60
2022-10-03T01:47:10.025Z,2.70
2022-10-03T01:49:46.448Z,2.90
2022-10-03T01:52:23.091Z,2.80
2022-10-03T01:54:56.895Z,2.70
2022-10-03T01:57:46.743Z,2.60
2022-10-03T02:00:20.346Z,2.70
2022-10-03T02:03:11.443Z,2.70
2022-10-03T02:05:55.852Z,3.10
2022-10-03T02:08:29.505Z,2.90
2022-10-03T02:11:09.142Z,3.20
2022-10-03T02:13:53.590Z,3.70
2022-10-03T02:16:36.529Z,3.10
2022-10-03T02:19:21.482Z,2.80
2022-10-03T02:21:52.257Z,2.60
2022-10-03T02:24:49.566Z,2.60
2022-10-03T02:27:56.404Z,2.70
2022-10-03T02:30:47.116Z,3.00
2022-10-03T02:33:56.403Z,2.60
2022-10-03T02:36:46.684Z,2.90
2022-10-03T02:39:33.019Z,2.60
2022-10-03T02:42:39.238Z,2.40
2022-10-03T02:45:36.964Z,2.20
2022-10-03T02:48:31.954Z,2.40
2022-10-03T02:51:23.387Z,2.60
2022-10-03T02:54:17.648Z,2.00
2022-10-03T02:56:48.294Z,2.30
2022-10-03T02:59:54.265Z,2.70
2022-10-03T03:02:41.029Z,2.60
2022-10-03T03:05:43.190Z,2.90
2022-10-03T03:08:17.517Z,2.90
2022-10-03T03:11:08.312Z,2.50
2022-10-03T03:14:17.333Z,2.80
2022-10-03T03:16:45.137Z,3.00
2022-10-03T03:19:22.627Z,2.70
2022-10-03T03:21:59.126Z,3.00
2022-10-03T03:24:55.121Z,3.20
2022-10-03T03:27:35.174Z,3.10
2022-10-03T03:30:15.892Z,2.90
2022-10-03T03:33:05.234Z,2.90
2022-10-03T03:35:43.747Z,2.70
2022-10-03T03:38:32.113Z,2.70
2022-10-03T03:41:26.771Z,2.50
2022-10-03T03:44:16.914Z,2.30
2022-10-03T03:47:14.792Z,2.50
2022-10-03T03:50:12.750Z,3.00
2022-10-03T03:52:58.888Z,2.90
2022-10-03T03:55:56.588Z,2.60
2022-10-03T03:59:09.383Z,2.40
2022-10-03T04:02:15.324Z,2.30
2022-10-03T04:04:55.855Z,2.10
2022-10-03T04:08:02.013Z,2.20
2022-10-03T04:10:58.812Z,2.90
2022-10-03T04:13:48.013Z,2.50
2022-10-03T04:16:15.721Z,2.20
2022-10-03T04:18:59.233Z,2.80
2022-10-03T04:22:02.077Z,3.20
2022-10-03T04:24:32.509Z,2.50
2022-10-03T04:27:18.349Z,2.90
2022-10-03T04:30:10.143Z,2.60
2022-10-03T04:33:29.311Z,2.70
2022-10-03T04:36:16.556Z,2.30
2022-10-03T04:39:03.870Z,2.60
2022-10-03T04:41:49.741Z,2.70
2022-10-03T04:44:30.334Z,2.50
2022-10-03T04:47:09.345Z,2.40
2022-10-03T04:49:46.627Z,15.00
2022-10-03T04:52:33.427Z,3.00
2022-10-03T04:55:06.847Z,2.60
2022-10-03T04:57:47.380Z,2.60
2022-10-03T05:00:32.053Z,2.70
2022-10-03T05:03:22.553Z,2.80
2022-10-03T05:05:56.384Z,2.80
2022-10-03T05:08:41.220Z,2.80
2022-10-03T05:11:27.920Z,2.90
2022-10-03T05:14:28.169Z,3.00
2022-10-03T05:17:09.272Z,3.30
2022-10-03T05:19:51.087Z,3.50
2022-10-03T05:22:42.472Z,3.60
2022-10-03T05:25:39.101Z,3.50
2022-10-03T05:28:28.817Z,3.40
2022-10-03T05:31:27.245Z,3.30
2022-10-03T05:34:17.214Z,3.50
2022-10-03T05:37:06.574Z,3.20
2022-10-03T05:39:34.952Z,3.20
2022-10-03T05:42:23.365Z,3.50
2022-10-03T05:45:12.738Z,3.40
2022-10-03T05:47:46.379Z,3.60
2022-10-03T05:50:33.773Z,3.50
2022-10-03T05:53:20.757Z,3.50
2022-10-03T05:56:13.528Z,3.00
2022-10-03T05:58:49.979Z,2.90
2022-10-03T06:01:28.502Z,3.30
2022-10-03T06:04:09.535Z,2.80
2022-10-03T06:07:04.764Z,2.80
2022-10-03T06:09:43.891Z,2.80
2022-10-03T06:12:32.980Z,2.90
2022-10-03T06:15:35.810Z,2.70
2022-10-03T06:18:23.230Z,2.80
2022-10-03T06:21:28.149Z,2.70
2022-10-03T06:24:16.587Z,2.90
2022-10-03T06:26:50.378Z,2.20
2022-10-03T06:29:54.839Z,2.80
2022-10-03T06:32:38.023Z,2.80
2022-10-03T06:35:11.725Z,2.60
2022-10-03T06:38:01.445Z,2.60
2022-10-03T06:40:48.501Z,2.80
2022-10-03T06:43:43.066Z,2.90
2022-10-03T06:46:16.759Z,3.10
2022-10-03T06:48:44.466Z,2.80
2022-10-03T06:51:34.233Z,2.90
2022-10-03T06:54:16.629Z,2.70
2022-10-03T06:57:09.675Z,2.70
2022-10-03T06:59:54.125Z,3.00
2022-10-03T07:03:27.121Z,3.00
2022-10-03T07:06:11.740Z,2.80
2022-10-03T07:08:59.828Z,2.80
2022-10-03T07:11:52.354Z,2.60
2022-10-03T07:14:55.500Z,3.00
2022-10-03T07:17:35.292Z,2.50
2022-10-03T07:20:15.154Z,2.60
2022-10-03T07:22:56.433Z,2.50
2022-10-03T07:26:12.285Z,2.80
2022-10-03T07:28:58.023Z,2.50
2022-10-03T07:31:47.050Z,2.20
2022-10-03T07:34:23.836Z,2.10
2022-10-03T07:37:56.143Z,2.10
2022-10-03T07:40:45.268Z,2.10
2022-10-03T07:43:32.018Z,2.10
2022-10-03T07:46:15.397Z,1.80
2022-10-03T07:49:24.699Z,1.50
2022-10-03T07:52:20.253Z,1.60
2022-10-03T07:55:28.108Z,1.50
2022-10-03T07:58:46.500Z,1.40
2022-10-03T08:01:22.098Z,1.50
2022-10-03T08:04:33.257Z,1.50
2022-10-03T08:07:25.279Z,1.40
2022-10-03T08:10:02.357Z,1.60
2022-10-03T08:12:32.739Z,1.90
2022-10-03T08:15:28.145Z,1.90
2022-10-03T08:18:25.241Z,1.90
2022-10-03T08:21:05.472Z,2.00
2022-10-03T08:23:35.904Z,2.20
2022-10-03T08:26:15.867Z,2.30
2022-10-03T08:29:02.139Z,2.10
2022-10-03T08:31:48.508Z,2.00
2022-10-03T08:34:37.659Z,1.90
2022-10-03T08:37:20.603Z,2.00
2022-10-03T08:40:35.491Z,1.90
2022-10-03T08:43:42.329Z,2.40
2022-10-03T08:46:19.289Z,2.50
2022-10-03T08:49:14.173Z,2.10
2022-10-03T08:52:11.509Z,2.30
2022-10-03T08:55:17.702Z,2.40
2022-10-03T08:58:04.051Z,2.30
2022-10-03T09:01:03.102Z,2.50
2022-10-03T09:04:08.075Z,2.40
2022-10-03T09:06:52.675Z,2.40
2022-10-03T09:10:00.944Z,2.60
2022-10-03T09:12:34.593Z,2.70
2022-10-03T09:15:27.323Z,2.30
2022-10-03T09:18:08.836Z,2.50
2022-10-03T09:20:42.829Z,2.80
2022-10-03T09:23:48.975Z,2.90
2022-10-03T09:26:50.412Z,2.70
2022-10-03T09:29:48.195Z,2.60
2022-10-03T09:32:55.327Z,2.60
2022-10-03T09:35:41.946Z,2.80
2022-10-03T09:38:40.189Z,3.30
2022-10-03T09:41:13.999Z,3.00
2022-10-03T09:44:06.583Z,3.10
2022-10-03T09:46:45.568Z,3.00
2022-10-03T09:49:43.559Z,3.40
2022-10-03T09:52:35.794Z,3.10
2022-10-03T09:55:34.185Z,3.40
2022-10-03T09:58:12.413Z,3.10
2022-10-03T10:00:49.424Z,3.00
2022-10-03T10:03:39.089Z,2.90
2022-10-03T10:06:13.689Z,3.30
2022-10-03T10:09:02.547Z,3.30
2022-10-03T10:12:15.507Z,3.30
2022-10-03T10:15:09.517Z,3.10
2022-10-03T10:17:49.264Z,2.70
2022-10-03T10:20:39.934Z,2.70
2022-10-03T10:23:28.011Z,3.10
2022-10-03T10:26:01.869Z,3.10
2022-10-03T10:29:10.000Z,3.30
2022-10-03T10:32:05.158Z,3.00
2022-10-03T10:35:03.148Z,3.20
2022-10-03T10:37:49.554Z,2.80
2022-10-03T10:40:42.128Z,3.10
2022-10-03T10:44:07.207Z,2.90
2022-10-03T10:47:18.185Z,2.50
2022-10-03T10:50:22.982Z,2.20
2022-10-03T10:53:09.404Z,2.00
2022-10-03T10:56:04.498Z,1.90
2022-10-03T10:59:10.161Z,1.70
2022-10-03T11:02:05.740Z,1.70
2022-10-03T11:04:36.566Z,1.30
2022-10-03T11:07:11.781Z,1.30
2022-10-03T11:10:00.956Z,1.30
2022-10-03T11:13:22.332Z,1.10
2022-10-03T11:16:18.188Z,1.00
2022-10-03T11:19:04.226Z,1.30
2022-10-03T11:21:44.272Z,1.70
2022-10-03T11:24:39.687Z,1.10
2022-10-03T11:27:36.586Z,1.10
2022-10-03T11:30:23.323Z,1.00
2022-10-03T11:33:13.285Z,0.90
2022-10-03T11:35:56.193Z,1.00
2022-10-03T11:38:38.705Z,1.00
2022-10-03T11:41:33.385Z,0.90
2022-10-03T11:44:09.646Z,1.00
2022-10-03T11:46:54.809Z,1.00
2022-10-03T11:49:50.791Z,1.10
2022-10-03T11:52:38.122Z,1.40
2022-10-03T11:55:30.662Z,1.10
2022-10-03T11:58:27.604Z,1.00
2022-10-03T12:01:17.989Z,1.10
2022-10-03T12:04:20.483Z,1.10
2022-10-03T12:07:18.303Z,1.20
2022-10-03T12:10:24.155Z,1.30
2022-10-03T12:12:56.941Z,1.50
2022-10-03T12:15:34.518Z,1.10
2022-10-03T12:18:14.057Z,1.00
2022-10-03T12:21:00.192Z,1.30
2022-10-03T12:23:40.595Z,1.10
2022-10-03T12:26:17.405Z,1.10
2022-10-03T12:28:52.194Z,1.00
2022-10-03T12:31:39.895Z,0.90
2022-10-03T12:35:14.528Z,1.00
2022-10-03T12:38:01.740Z,0.90
2022-10-03T12:40:40.036Z,0.90
2022-10-03T12:43:34.513Z,0.80
2022-10-03T12:46:11.200Z,0.90
2022-10-03T12:48:48.471Z,0.80
2022-10-03T12:51:16.124Z,1.00
2022-10-03T12:54:26.720Z,1.10
2022-10-03T12:57:07.598Z,0.90
2022-10-03T12:59:54.560Z,1.30
2022-10-03T13:02:38.982Z,0.90
2022-10-03T13:05:25.103Z,1.00
2022-10-03T13:08:00.657Z,0.90
2022-10-03T13:10:51.762Z,0.80
2022-10-03T13:13:22.378Z,0.90
2022-10-03T13:16:04.587Z,1.20
2022-10-03T13:19:08.433Z,1.20
2022-10-03T13:22:24.711Z,1.00
2022-10-03T13:25:09.198Z,1.20
2022-10-03T13:27:48.009Z,1.20
2022-10-03T13:30:24.271Z,1.20
2022-10-03T13:32:51.930Z,1.10
2022-10-03T13:35:59.103Z,1.10
2022-10-03T13:39:05.369Z,1.10
2022-10-03T13:41:50.217Z,1.20
2022-10-03T13:44:38.867Z,1.10
2022-10-03T13:47:34.469Z,1.00
2022-10-03T13:50:15.434Z,1.10
2022-10-03T13:52:52.303Z,0.90
2022-10-03T13:55:42.380Z,1.30
2022-10-03T13:58:38.494Z,1.00
2022-10-03T14:01:13.961Z,0.90
2022-10-03T14:04:01.327Z,1.10
2022-10-03T14:06:51.258Z,1.40
2022-10-03T14:09:44.996Z,1.30
2022-10-03T14:12:54.375Z,1.10
2022-10-03T14:15:49.236Z,1.00
2022-10-03T14:18:45.043Z,0.90
2022-10-03T14:21:41.742Z,1.10
2022-10-03T14:24:34.801Z,0.90
2022-10-03T14:27:29.707Z,1.20
2022-10-03T14:30:16.804Z,1.10
2022-10-03T14:33:06.958Z,0.90
2022-10-03T14:35:53.871Z,0.90
2022-10-03T14:39:03.499Z,1.10
2022-10-03T14:42:06.538Z,0.90
2022-10-03T14:44:41.798Z,1.00
2022-10-03T14:47:16.415Z,1.10
2022-10-03T14:49:57.821Z,1.00
2022-10-03T14:52:32.447Z,1.10
2022-10-03T14:55:19.122Z,0.90
2022-10-03T14:58:28.864Z,1.10
2022-10-03T15:01:02.652Z,1.00
2022-10-03T15:03:38.942Z,1.10
2022-10-03T15:06:12.720Z,0.80
2022-10-03T15:08:43.058Z,1.00
2022-10-03T15:11:15.626Z,0.90
2022-10-03T15:13:55.076Z,1.00
2022-10-03T15:16:24.766Z,0.90
2022-10-03T15:18:56.845Z,0.90
2022-10-03T15:21:27.349Z,1.10
2022-10-03T15:24:02.098Z,1.10
2022-10-03T15:26:36.434Z,1.10
2022-10-03T15:29:14.627Z,1.20
2022-10-03T15:31:46.852Z,0.90
2022-10-03T15:34:25.527Z,1.00
2022-10-03T15:37:00.553Z,1.00
2022-10-03T15:39:33.866Z,1.10
2022-10-03T15:42:15.837Z,1.10
2022-10-03T15:44:58.041Z,0.90
2022-10-03T15:47:32.268Z,1.20
2022-10-03T15:50:07.312Z,1.00
2022-10-03T15:52:52.475Z,1.30
2022-10-03T15:55:30.439Z,0.90
2022-10-03T15:58:35.067Z,1.10
2022-10-03T16:01:13.464Z,1.20
2022-10-03T16:03:49.227Z,1.20
2022-10-03T16:06:39.926Z,1.20
2022-10-03T16:09:43.500Z,1.10
2022-10-03T16:12:17.006Z,1.30
2022-10-03T16:15:17.155Z,1.20
2022-10-03T16:17:55.237Z,1.60
2022-10-03T16:20:57.861Z,1.30
2022-10-03T16:23:38.639Z,1.40
2022-10-03T16:26:15.107Z,1.40
2022-10-03T16:29:02.663Z,1.70
2022-10-03T16:31:39.370Z,1.60
2022-10-03T16:34:20.358Z,1.60
2022-10-03T16:36:50.393Z,1.80
2022-10-03T16:39:21.959Z,1.80
2022-10-03T16:41:55.964Z,1.80
2022-10-03T16:44:39.993Z,2.20
2022-10-03T16:47:09.834Z,2.10
2022-10-03T16:50:03.736Z,2.50
2022-10-03T16:52:37.902Z,2.30
2022-10-03T16:55:18.511Z,2.60
2022-10-03T16:58:10.804Z,2.60
2022-10-03T17:01:09.088Z,2.70
2022-10-03T17:03:49.493Z,2.60
2022-10-03T17:06:23.629Z,2.80
2022-10-03T17:08:55.270Z,2.50
2022-10-03T17:11:27.550Z,2.90
2022-10-03T17:14:00.123Z,2.50
2022-10-03T17:16:51.123Z,3.00
2022-10-03T17:19:34.158Z,3.10
2022-10-03T17:22:24.047Z,7.40
2022-10-03T17:25:00.987Z,5.50
2022-10-03T17:27:40.551Z,3.00
2022-10-03T17:30:11.367Z,2.60
2022-10-03T17:32:43.122Z,3.00
2022-10-03T17:35:28.415Z,2.70
2022-10-03T17:38:37.278Z,2.60
2022-10-03T17:41:28.399Z,2.60
2022-10-03T17:44:17.366Z,3.30
2022-10-03T17:47:07.037Z,3.00
2022-10-03T17:49:52.892Z,2.40
2022-10-03T17:52:23.670Z,2.30
2022-10-03T17:54:56.314Z,3.00
2022-10-03T17:57:34.201Z,2.20
2022-10-03T18:00:09.072Z,2.80
2022-10-03T18:02:55.745Z,2.70
2022-10-03T18:05:49.398Z,2.30
2022-10-03T18:08:27.714Z,2.70
2022-10-03T18:10:58.420Z,2.20
2022-10-03T18:13:31.233Z,2.30
2022-10-03T18:16:09.579Z,2.40
2022-10-03T18:19:27.163Z,2.40
2022-10-03T18:22:26.536Z,2.60
2022-10-03T18:25:01.604Z,2.40
2022-10-03T18:27:51.600Z,2.40
2022-10-03T18:30:24.548Z,2.30
2022-10-03T18:32:54.067Z,2.50
2022-10-03T18:35:35.772Z,2.50
2022-10-03T18:38:23.675Z,2.70
2022-10-03T18:40:57.676Z,2.40
2022-10-03T18:43:31.307Z,4.00
2022-10-03T18:46:11.308Z,24.10
2022-10-03T18:49:32.748Z,5.70
2022-10-03T18:51:52.601Z,3.70
2022-10-03T18:54:31.319Z,3.20
2022-10-03T18:57:17.318Z,3.50
2022-10-03T19:00:06.152Z,3.20
2022-10-03T19:02:41.102Z,3.10
2022-10-03T19:05:21.029Z,3.20
2022-10-03T19:08:08.652Z,3.00
2022-10-03T19:10:36.307Z,3.30
2022-10-03T19:13:16.608Z,3.00
2022-10-03T19:16:00.269Z,3.20
2022-10-03T19:18:41.852Z,3.60
2022-10-03T19:21:18.915Z,3.70
2022-10-03T19:23:52.586Z,23.10
2022-10-03T19:26:31.227Z,3.60
2022-10-03T19:29:07.988Z,4.00
2022-10-03T19:31:51.430Z,3.80
2022-10-03T19:34:22.432Z,3.60
2022-10-03T19:36:51.953Z,3.70
2022-10-03T19:39:21.974Z,3.70
2022-10-03T19:41:52.595Z,4.40
2022-10-03T19:44:25.082Z,4.00
2022-10-03T19:47:02.725Z,4.20
2022-10-03T19:49:47.633Z,4.40
2022-10-03T19:52:18.463Z,4.50
2022-10-03T19:55:09.436Z,4.50
2022-10-03T19:57:37.110Z,4.70
2022-10-03T20:00:19.236Z,5.60
2022-10-03T20:03:14.568Z,4.90
2022-10-03T20:06:02.452Z,5.50
2022-10-03T20:09:06.030Z,5.40
2022-10-03T20:11:46.387Z,5.10
2022-10-03T20:14:26.854Z,9.30
2022-10-03T20:16:58.382Z,5.20
2022-10-03T20:19:29.056Z,5.10
2022-10-03T20:22:02.430Z,4.70
2022-10-03T20:24:37.567Z,5.50
2022-10-03T20:27:14.295Z,4.80
2022-10-03T20:30:20.386Z,4.90
2022-10-03T20:32:49.918Z,4.90
2022-10-03T20:35:28.404Z,5.00
2022-10-03T20:38:07.949Z,4.90
2022-10-03T20:40:45.549Z,5.10
2022-10-03T20:43:41.562Z,5.00
2022-10-03T20:46:34.653Z,5.10
2022-10-03T20:49:08.398Z,5.80
2022-10-03T20:51:56.641Z,5.50
2022-10-03T20:54:27.303Z,5.40
2022-10-03T20:57:28.313Z,5.50
2022-10-03T21:00:12.290Z,5.70
2022-10-03T21:03:19.501Z,5.90
2022-10-03T21:05:51.878Z,5.90
2022-10-03T21:08:23.841Z,6.80
2022-10-03T21:10:57.260Z,6.60
2022-10-03T21:13:42.737Z,10.30
2022-10-03T21:16:25.289Z,9.00
2022-10-03T21:18:59.197Z,6.30
2022-10-03T21:21:33.856Z,6.20
2022-10-03T21:24:24.651Z,6.60
2022-10-03T21:27:01.764Z,6.70
2022-10-03T21:29:29.499Z,6.80
2022-10-03T21:32:16.105Z,6.60
2022-10-03T21:35:07.813Z,7.00
2022-10-03T21:37:55.608Z,6.90
2022-10-03T21:41:01.064Z,6.40
2022-10-03T21:43:48.394Z,6.30
2022-10-03T21:46:37.022Z,6.90
2022-10-03T21:49:45.699Z,6.30
2022-10-03T21:52:48.541Z,7.00
2022-10-03T21:55:52.134Z,6.70
2022-10-03T21:58:58.938Z,6.70
2022-10-03T22:01:34.746Z,6.90
2022-10-03T22:04:15.353Z,7.70
2022-10-03T22:06:52.344Z,6.70
2022-10-03T22:09:20.800Z,7.00
2022-10-03T22:12:05.873Z,7.10
2022-10-03T22:15:04.784Z,6.70
2022-10-03T22:17:39.074Z,6.90
2022-10-03T22:20:12.977Z,7.30
2022-10-03T22:22:55.643Z,8.30
2022-10-03T22:25:52.093Z,8.00
2022-10-03T22:28:55.454Z,8.10
2022-10-03T22:31:37.982Z,8.00
2022-10-03T22:34:33.006Z,8.50
2022-10-03T22:37:01.878Z,8.50
2022-10-03T22:39:30.775Z,8.80
2022-10-03T22:42:02.171Z,8.10
2022-10-03T22:44:34.299Z,9.00
2022-10-03T22:47:11.127Z,8.00
2022-10-03T22:49:43.058Z,7.90
2022-10-03T22:52:28.197Z,7.70
2022-10-03T22:54:58.129Z,8.00
2022-10-03T22:57:26.884Z,7.60
2022-10-03T23:00:02.453Z,7.80
2022-10-03T23:02:34.539Z,7.50
2022-10-03T23:05:24.211Z,7.30
2022-10-03T23:08:10.027Z,7.20
2022-10-03T23:10:50.425Z,7.30
2022-10-03T23:13:21.161Z,6.90
2022-10-03T23:15:55.527Z,6.60
2022-10-03T23:19:09.095Z,6.70
2022-10-03T23:21:47.609Z,6.80
2022-10-03T23:24:39.338Z,6.50
2022-10-03T23:27:26.942Z,6.20
2022-10-03T23:30:12.940Z,6.00
2022-10-03T23:32:46.631Z,5.70
2022-10-03T23:35:32.525Z,6.10
2022-10-03T23:38:01.512Z,6.00
2022-10-03T23:40:38.595Z,5.50
2022-10-03T23:43:25.410Z,5.20
2022-10-03T23:45:58.050Z,5.20
2022-10-03T23:48:28.811Z,5.00
2022-10-03T23:51:07.043Z,5.10
2022-10-03T23:53:43.370Z,4.90
2022-10-03T23:56:23.443Z,4.70
2022-10-03T23:58:55.810Z,4.70
